»·PEaware :: N132EF KOXR-KSBP

N132EF :: KOXR-KSBP

FLIGHT INFORMATION

Flight Status: Arrived
Operator: Privately registered:
United States
More flights under this callsign
Pilot: Ron R. (25532)
Aircraft: BEECH AIRCRAFT DUKE
(BE60)
More flights by this aircraft type
Origin: KOXR Oxnard
United States
Destination: KSBP San Luis Co Regl
United States
More flights between these airports :: More routes between these airports
Route: +RZS MQO
File this flight plan on PilotEdge
Remarks:
Altitude:
(Current/Filed)
8,000ft
Speed:
(Current/Filed)
200kts
Departed: 04-Sep-19 08:59 PM
Arrived: 04-Sep-19 09:37 PM
Distance/Time
Traveled:
94nm/0:38
Distance/Time
To Go:
Arrived

Flight Plot

Page will automatically refresh every two minutes.

Flight plan parsing failed; only flown route is shown


Map Options




Map Legend


Flown Route
Filed Route
Departure Airport
Arrival Airport
Navaid (VOR, NDB)
Fix

Horizontal Profiles

Position Reports

Time Latitude Longitude Heading Altitude Ground
Speed
04-Sep-19 20:37 34.198747 -119.206942 0 46ft 0kts
04-Sep-19 20:38 34.198747 -119.206942 0 46ft 0kts
04-Sep-19 20:39 34.198747 -119.206942 0 46ft 0kts
04-Sep-19 20:40 34.198748 -119.206942 0 46ft 0kts
04-Sep-19 20:41 34.198750 -119.206942 0 46ft 0kts
04-Sep-19 20:42 34.198753 -119.206942 0 46ft 0kts
04-Sep-19 20:43 34.198755 -119.206942 0 46ft 0kts
04-Sep-19 20:45 34.198761 -119.206942 0 46ft 0kts
04-Sep-19 20:46 34.198764 -119.206942 0 46ft 0kts
04-Sep-19 20:47 34.198767 -119.206942 0 46ft 0kts
04-Sep-19 20:48 34.198770 -119.206942 0 46ft 0kts
04-Sep-19 20:49 34.199661 -119.204986 87 46ft 15kts
04-Sep-19 20:50 34.199597 -119.199328 91 46ft 17kts
04-Sep-19 20:51 34.199390 -119.197828 301 46ft 0kts
04-Sep-19 20:52 34.199392 -119.197831 301 46ft 0kts
04-Sep-19 20:53 34.199394 -119.197835 301 46ft 0kts
04-Sep-19 20:53 34.199395 -119.197838 301 46ft 0kts
04-Sep-19 20:55 34.199400 -119.197848 301 46ft 0kts
04-Sep-19 20:56 34.199826 -119.198109 356 46ft 7kts
04-Sep-19 20:56 34.200275 -119.198123 358 46ft 0kts
04-Sep-19 20:58 34.200751 -119.199622 270 46ft 40kts
04-Sep-19 20:59 34.200159 -119.239754 265 1112ft 140kts
04-Sep-19 20:59 34.198460 -119.278554 268 2805ft 145kts
04-Sep-19 21:00 34.197341 -119.331375 270 4333ft 165kts
04-Sep-19 21:02 34.230721 -119.382590 310 6103ft 172kts
04-Sep-19 21:02 34.257314 -119.419250 309 7350ft 176kts
04-Sep-19 21:03 34.292233 -119.467885 309 8010ft 215kts
04-Sep-19 21:04 34.331380 -119.522125 309 8005ft 204kts
04-Sep-19 21:05 34.367257 -119.572120 309 8009ft 193kts
04-Sep-19 21:06 34.403313 -119.622479 309 8007ft 200kts
04-Sep-19 21:07 34.439978 -119.673721 309 8006ft 201kts
04-Sep-19 21:08 34.476835 -119.725315 309 8007ft 202kts
04-Sep-19 21:09 34.513540 -119.776817 309 8006ft 202kts
04-Sep-19 21:10 34.551668 -119.826838 311 8012ft 202kts
04-Sep-19 21:11 34.589866 -119.876764 311 8026ft 201kts
04-Sep-19 21:12 34.627887 -119.926845 311 7997ft 204kts
04-Sep-19 21:13 34.667451 -119.979095 311 6991ft 211kts
04-Sep-19 21:14 34.706875 -120.031165 311 6131ft 204kts
04-Sep-19 21:15 34.742645 -120.078461 311 6059ft 178kts
04-Sep-19 21:16 34.775936 -120.122643 311 6076ft 195kts
04-Sep-19 21:17 34.817152 -120.173594 323 6071ft 220kts
04-Sep-19 21:18 34.865619 -120.215768 323 6059ft 197kts
04-Sep-19 21:19 34.908084 -120.253190 323 6062ft 182kts
04-Sep-19 21:20 34.949352 -120.289856 323 6069ft 195kts
04-Sep-19 21:21 34.994880 -120.330302 323 6064ft 206kts
04-Sep-19 21:22 35.041531 -120.371883 323 6063ft 208kts
04-Sep-19 21:23 35.088446 -120.413777 323 6061ft 208kts
04-Sep-19 21:24 35.129549 -120.461287 279 5513ft 201kts
04-Sep-19 21:25 35.094497 -120.487402 149 4524ft 182kts
04-Sep-19 21:26 35.057392 -120.448113 141 4064ft 173kts
04-Sep-19 21:27 35.031735 -120.403566 76 4065ft 170kts
04-Sep-19 21:28 35.068290 -120.387891 320 4064ft 161kts
04-Sep-19 21:29 35.103305 -120.425129 319 4062ft 171kts
04-Sep-19 21:30 35.135677 -120.468145 305 3387ft 154kts
04-Sep-19 21:31 35.158352 -120.505233 306 2951ft 122kts
04-Sep-19 21:32 35.180240 -120.540673 306 2362ft 130kts
04-Sep-19 21:33 35.198434 -120.572985 304 1622ft 110kts
04-Sep-19 21:34 35.216264 -120.603981 304 930ft 109kts
04-Sep-19 21:35 35.233334 -120.633986 304 235ft 104kts
04-Sep-19 21:36 35.239781 -120.644247 38 215ft 0kts
04-Sep-19 21:37 35.239371 -120.642750 124 215ft 12kts
04-Sep-19 21:38 35.238315 -120.639334 121 215ft 4kts
04-Sep-19 21:39 35.238274 -120.639187 90 215ft 0kts
04-Sep-19 21:40 35.238274 -120.639186 90 215ft 0kts
04-Sep-19 21:41 35.238274 -120.639186 90 215ft 0kts

Navigation Log

Ident Type
Flight plan parsing failed, navigation log unavailable